sensor_id;sensor_type;location;lat;lon;timestamp;P1;durP1;ratioP1;P2;durP2;ratioP2
9974;SDS011;5028;50.974;4.968;2024-03-07T00:00:17;36.23;;;30.77;;
9974;SDS011;5028;50.974;4.968;2024-03-07T00:02:50;40.43;;;31.20;;
9974;SDS011;5028;50.974;4.968;2024-03-07T00:05:19;38.50;;;31.60;;
9974;SDS011;5028;50.974;4.968;2024-03-07T00:07:51;36.13;;;31.03;;
9974;SDS011;5028;50.974;4.968;2024-03-07T00:10:19;36.17;;;32.07;;
9974;SDS011;5028;50.974;4.968;2024-03-07T00:12:49;36.90;;;31.57;;
9974;SDS011;5028;50.974;4.968;2024-03-07T00:15:17;37.73;;;31.23;;
9974;SDS011;5028;50.974;4.968;2024-03-07T00:17:47;36.77;;;30.90;;
9974;SDS011;5028;50.974;4.968;2024-03-07T00:20:17;39.83;;;32.97;;
9974;SDS011;5028;50.974;4.968;2024-03-07T00:22:47;41.57;;;33.03;;
9974;SDS011;5028;50.974;4.968;2024-03-07T00:25:16;39.50;;;32.53;;
9974;SDS011;5028;50.974;4.968;2024-03-07T00:27:47;37.10;;;31.80;;
9974;SDS011;5028;50.974;4.968;2024-03-07T00:30:16;39.33;;;31.73;;
9974;SDS011;5028;50.974;4.968;2024-03-07T00:32:46;40.00;;;32.80;;
9974;SDS011;5028;50.974;4.968;2024-03-07T00:35:16;40.27;;;33.93;;
9974;SDS011;5028;50.974;4.968;2024-03-07T00:37:47;42.73;;;33.87;;
9974;SDS011;5028;50.974;4.968;2024-03-07T00:40:15;38.73;;;32.37;;
9974;SDS011;5028;50.974;4.968;2024-03-07T00:42:43;41.60;;;33.83;;
9974;SDS011;5028;50.974;4.968;2024-03-07T00:45:12;42.07;;;33.77;;
9974;SDS011;5028;50.974;4.968;2024-03-07T00:47:40;41.43;;;33.77;;
9974;SDS011;5028;50.974;4.968;2024-03-07T00:50:09;40.50;;;33.60;;
9974;SDS011;5028;50.974;4.968;2024-03-07T00:52:39;41.93;;;34.10;;
9974;SDS011;5028;50.974;4.968;2024-03-07T00:55:08;43.77;;;34.30;;
9974;SDS011;5028;50.974;4.968;2024-03-07T00:57:36;43.07;;;35.03;;
9974;SDS011;5028;50.974;4.968;2024-03-07T01:00:05;40.83;;;34.13;;
9974;SDS011;5028;50.974;4.968;2024-03-07T01:02:41;43.60;;;34.90;;
9974;SDS011;5028;50.974;4.968;2024-03-07T01:05:10;43.10;;;36.07;;
9974;SDS011;5028;50.974;4.968;2024-03-07T01:07:42;46.47;;;36.67;;
9974;SDS011;5028;50.974;4.968;2024-03-07T01:10:12;48.30;;;36.20;;
9974;SDS011;5028;50.974;4.968;2024-03-07T01:12:41;45.73;;;36.17;;
9974;SDS011;5028;50.974;4.968;2024-03-07T01:15:11;45.60;;;36.23;;
9974;SDS011;5028;50.974;4.968;2024-03-07T01:17:39;46.20;;;35.93;;
9974;SDS011;5028;50.974;4.968;2024-03-07T01:20:08;45.57;;;36.63;;
9974;SDS011;5028;50.974;4.968;2024-03-07T01:22:38;47.53;;;36.40;;
9974;SDS011;5028;50.974;4.968;2024-03-07T01:25:07;48.20;;;35.97;;
9974;SDS011;5028;50.974;4.968;2024-03-07T01:27:36;45.60;;;36.80;;
9974;SDS011;5028;50.974;4.968;2024-03-07T01:30:05;48.20;;;36.00;;
9974;SDS011;5028;50.974;4.968;2024-03-07T01:32:34;44.00;;;35.47;;
9974;SDS011;5028;50.974;4.968;2024-03-07T01:35:03;47.20;;;36.70;;
9974;SDS011;5028;50.974;4.968;2024-03-07T01:37:34;46.37;;;36.33;;
9974;SDS011;5028;50.974;4.968;2024-03-07T01:40:02;43.13;;;34.73;;
9974;SDS011;5028;50.974;4.968;2024-03-07T01:42:33;44.53;;;36.00;;
9974;SDS011;5028;50.974;4.968;2024-03-07T01:45:02;46.87;;;36.10;;
9974;SDS011;5028;50.974;4.968;2024-03-07T01:47:31;49.33;;;37.97;;
9974;SDS011;5028;50.974;4.968;2024-03-07T01:49:59;49.87;;;36.90;;
9974;SDS011;5028;50.974;4.968;2024-03-07T01:52:28;47.20;;;35.97;;
9974;SDS011;5028;50.974;4.968;2024-03-07T01:54:57;48.87;;;36.20;;
9974;SDS011;5028;50.974;4.968;2024-03-07T01:57:25;48.40;;;37.00;;
9974;SDS011;5028;50.974;4.968;2024-03-07T01:59:56;46.60;;;36.40;;
9974;SDS011;5028;50.974;4.968;2024-03-07T02:02:24;45.43;;;36.23;;
9974;SDS011;5028;50.974;4.968;2024-03-07T02:04:53;48.70;;;36.33;;
9974;SDS011;5028;50.974;4.968;2024-03-07T02:07:22;43.93;;;36.87;;
9974;SDS011;5028;50.974;4.968;2024-03-07T02:09:50;46.80;;;36.50;;
9974;SDS011;5028;50.974;4.968;2024-03-07T02:12:26;49.17;;;38.27;;
9974;SDS011;5028;50.974;4.968;2024-03-07T02:14:57;51.17;;;37.20;;
9974;SDS011;5028;50.974;4.968;2024-03-07T02:17:26;49.03;;;36.77;;
9974;SDS011;5028;50.974;4.968;2024-03-07T02:19:54;49.77;;;38.47;;
9974;SDS011;5028;50.974;4.968;2024-03-07T02:22:24;49.87;;;36.60;;
9974;SDS011;5028;50.974;4.968;2024-03-07T02:24:53;47.30;;;36.03;;
9974;SDS011;5028;50.974;4.968;2024-03-07T02:27:21;45.20;;;35.80;;
9974;SDS011;5028;50.974;4.968;2024-03-07T02:29:50;44.40;;;35.57;;
9974;SDS011;5028;50.974;4.968;2024-03-07T02:32:18;45.27;;;35.07;;
9974;SDS011;5028;50.974;4.968;2024-03-07T02:34:46;44.47;;;35.03;;
9974;SDS011;5028;50.974;4.968;2024-03-07T02:37:15;44.47;;;34.80;;
9974;SDS011;5028;50.974;4.968;2024-03-07T02:39:45;41.90;;;33.20;;
9974;SDS011;5028;50.974;4.968;2024-03-07T02:42:13;45.40;;;34.73;;
9974;SDS011;5028;50.974;4.968;2024-03-07T02:44:41;44.13;;;34.23;;
9974;SDS011;5028;50.974;4.968;2024-03-07T02:47:10;43.87;;;34.23;;
9974;SDS011;5028;50.974;4.968;2024-03-07T02:49:38;47.63;;;35.33;;
9974;SDS011;5028;50.974;4.968;2024-03-07T02:52:06;47.97;;;36.53;;
9974;SDS011;5028;50.974;4.968;2024-03-07T02:54:34;45.50;;;35.63;;
9974;SDS011;5028;50.974;4.968;2024-03-07T02:57:04;45.47;;;36.20;;
9974;SDS011;5028;50.974;4.968;2024-03-07T02:59:32;50.57;;;37.43;;
9974;SDS011;5028;50.974;4.968;2024-03-07T03:02:01;48.17;;;37.43;;
9974;SDS011;5028;50.974;4.968;2024-03-07T03:04:29;50.77;;;37.20;;
9974;SDS011;5028;50.974;4.968;2024-03-07T03:06:57;53.90;;;37.70;;
9974;SDS011;5028;50.974;4.968;2024-03-07T03:09:26;51.63;;;36.17;;
9974;SDS011;5028;50.974;4.968;2024-03-07T03:11:55;51.17;;;37.87;;
9974;SDS011;5028;50.974;4.968;2024-03-07T03:14:24;53.30;;;37.17;;
9974;SDS011;5028;50.974;4.968;2024-03-07T03:16:53;53.43;;;36.70;;
9974;SDS011;5028;50.974;4.968;2024-03-07T03:19:22;54.83;;;38.80;;
9974;SDS011;5028;50.974;4.968;2024-03-07T03:21:52;55.73;;;39.07;;
9974;SDS011;5028;50.974;4.968;2024-03-07T03:24:22;54.47;;;38.23;;
9974;SDS011;5028;50.974;4.968;2024-03-07T03:26:50;55.17;;;39.07;;
9974;SDS011;5028;50.974;4.968;2024-03-07T03:29:18;57.67;;;37.93;;
9974;SDS011;5028;50.974;4.968;2024-03-07T03:31:48;57.63;;;40.00;;
9974;SDS011;5028;50.974;4.968;2024-03-07T03:34:16;64.53;;;41.43;;
9974;SDS011;5028;50.974;4.968;2024-03-07T03:36:44;65.67;;;42.33;;
9974;SDS011;5028;50.974;4.968;2024-03-07T03:39:13;63.27;;;41.90;;
9974;SDS011;5028;50.974;4.968;2024-03-07T03:41:42;64.27;;;42.23;;
9974;SDS011;5028;50.974;4.968;2024-03-07T03:44:10;65.00;;;41.63;;
9974;SDS011;5028;50.974;4.968;2024-03-07T03:46:39;65.20;;;43.80;;
9974;SDS011;5028;50.974;4.968;2024-03-07T03:49:09;67.80;;;43.27;;
9974;SDS011;5028;50.974;4.968;2024-03-07T03:51:37;68.07;;;44.10;;
9974;SDS011;5028;50.974;4.968;2024-03-07T03:54:06;67.10;;;44.13;;
9974;SDS011;5028;50.974;4.968;2024-03-07T03:56:36;68.40;;;43.63;;
9974;SDS011;5028;50.974;4.968;2024-03-07T03:59:06;64.30;;;42.50;;
9974;SDS011;5028;50.974;4.968;2024-03-07T04:01:35;66.10;;;44.00;;
9974;SDS011;5028;50.974;4.968;2024-03-07T04:04:03;65.70;;;43.73;;
9974;SDS011;5028;50.974;4.968;2024-03-07T04:06:33;70.47;;;45.43;;
9974;SDS011;5028;50.974;4.968;2024-03-07T04:09:01;73.37;;;46.07;;
9974;SDS011;5028;50.974;4.968;2024-03-07T04:11:31;70.53;;;43.80;;
9974;SDS011;5028;50.974;4.968;2024-03-07T04:14:00;70.43;;;43.30;;
9974;SDS011;5028;50.974;4.968;2024-03-07T04:16:28;72.07;;;44.60;;
9974;SDS011;5028;50.974;4.968;2024-03-07T04:18:57;69.00;;;44.17;;
9974;SDS011;5028;50.974;4.968;2024-03-07T04:21:25;73.67;;;43.03;;
9974;SDS011;5028;50.974;4.968;2024-03-07T04:23:54;73.97;;;44.00;;
9974;SDS011;5028;50.974;4.968;2024-03-07T04:26:23;74.17;;;44.87;;
9974;SDS011;5028;50.974;4.968;2024-03-07T04:28:52;75.20;;;44.43;;
9974;SDS011;5028;50.974;4.968;2024-03-07T04:31:22;72.93;;;42.53;;
9974;SDS011;5028;50.974;4.968;2024-03-07T04:33:51;78.13;;;44.23;;
9974;SDS011;5028;50.974;4.968;2024-03-07T04:36:19;74.50;;;44.17;;
9974;SDS011;5028;50.974;4.968;2024-03-07T04:38:48;79.90;;;44.20;;
9974;SDS011;5028;50.974;4.968;2024-03-07T04:41:19;83.03;;;45.33;;
9974;SDS011;5028;50.974;4.968;2024-03-07T04:43:48;77.00;;;43.97;;
9974;SDS011;5028;50.974;4.968;2024-03-07T04:46:16;82.50;;;43.10;;
9974;SDS011;5028;50.974;4.968;2024-03-07T04:48:44;80.60;;;43.73;;
9974;SDS011;5028;50.974;4.968;2024-03-07T04:51:12;79.33;;;43.13;;
9974;SDS011;5028;50.974;4.968;2024-03-07T04:53:40;84.80;;;44.30;;
9974;SDS011;5028;50.974;4.968;2024-03-07T04:56:09;78.43;;;44.60;;
9974;SDS011;5028;50.974;4.968;2024-03-07T04:58:39;90.13;;;44.73;;
9974;SDS011;5028;50.974;4.968;2024-03-07T05:01:07;80.53;;;43.17;;
9974;SDS011;5028;50.974;4.968;2024-03-07T05:03:35;79.07;;;43.33;;
9974;SDS011;5028;50.974;4.968;2024-03-07T05:06:03;80.20;;;42.90;;
9974;SDS011;5028;50.974;4.968;2024-03-07T05:08:32;96.87;;;44.47;;
9974;SDS011;5028;50.974;4.968;2024-03-07T05:11:00;94.13;;;44.57;;
9974;SDS011;5028;50.974;4.968;2024-03-07T05:13:29;118.33;;;46.37;;
9974;SDS011;5028;50.974;4.968;2024-03-07T05:15:59;157.97;;;49.30;;
9974;SDS011;5028;50.974;4.968;2024-03-07T05:18:27;187.37;;;50.27;;
9974;SDS011;5028;50.974;4.968;2024-03-07T05:20:55;173.87;;;51.17;;
9974;SDS011;5028;50.974;4.968;2024-03-07T05:23:35;280.00;;;52.27;;
9974;SDS011;5028;50.974;4.968;2024-03-07T05:26:03;327.87;;;54.67;;
9974;SDS011;5028;50.974;4.968;2024-03-07T05:28:33;416.43;;;58.13;;
9974;SDS011;5028;50.974;4.968;2024-03-07T05:31:02;444.77;;;59.80;;
9974;SDS011;5028;50.974;4.968;2024-03-07T05:33:31;383.70;;;57.63;;
9974;SDS011;5028;50.974;4.968;2024-03-07T05:36:02;397.63;;;57.40;;
9974;SDS011;5028;50.974;4.968;2024-03-07T05:38:40;415.00;;;59.73;;
9974;SDS011;5028;50.974;4.968;2024-03-07T05:41:10;407.83;;;60.20;;
9974;SDS011;5028;50.974;4.968;2024-03-07T05:43:39;482.40;;;65.80;;
9974;SDS011;5028;50.974;4.968;2024-03-07T05:46:09;494.37;;;62.60;;
9974;SDS011;5028;50.974;4.968;2024-03-07T05:48:37;544.23;;;62.87;;
9974;SDS011;5028;50.974;4.968;2024-03-07T05:51:05;455.00;;;59.57;;
9974;SDS011;5028;50.974;4.968;2024-03-07T05:53:36;513.07;;;65.80;;
9974;SDS011;5028;50.974;4.968;2024-03-07T05:56:05;526.77;;;65.07;;
9974;SDS011;5028;50.974;4.968;2024-03-07T05:58:34;496.33;;;63.13;;
9974;SDS011;5028;50.974;4.968;2024-03-07T06:01:02;463.33;;;59.97;;
9974;SDS011;5028;50.974;4.968;2024-03-07T06:03:32;717.00;;;71.30;;
9974;SDS011;5028;50.974;4.968;2024-03-07T06:06:00;418.40;;;57.90;;
9974;SDS011;5028;50.974;4.968;2024-03-07T06:08:29;561.30;;;64.00;;
9974;SDS011;5028;50.974;4.968;2024-03-07T06:10:57;632.00;;;69.83;;
9974;SDS011;5028;50.974;4.968;2024-03-07T06:13:25;524.23;;;61.57;;
9974;SDS011;5028;50.974;4.968;2024-03-07T06:15:54;648.03;;;70.77;;
9974;SDS011;5028;50.974;4.968;2024-03-07T06:18:22;596.67;;;71.53;;
9974;SDS011;5028;50.974;4.968;2024-03-07T06:20:52;541.90;;;67.33;;
9974;SDS011;5028;50.974;4.968;2024-03-07T06:23:20;656.53;;;76.77;;
9974;SDS011;5028;50.974;4.968;2024-03-07T06:25:48;590.00;;;69.07;;
9974;SDS011;5028;50.974;4.968;2024-03-07T06:28:17;512.47;;;64.53;;
9974;SDS011;5028;50.974;4.968;2024-03-07T06:30:46;563.20;;;71.20;;
9974;SDS011;5028;50.974;4.968;2024-03-07T06:33:15;636.83;;;73.97;;
9974;SDS011;5028;50.974;4.968;2024-03-07T06:35:47;568.70;;;71.60;;
9974;SDS011;5028;50.974;4.968;2024-03-07T06:38:17;479.83;;;64.70;;
9974;SDS011;5028;50.974;4.968;2024-03-07T06:40:45;387.10;;;60.53;;
9974;SDS011;5028;50.974;4.968;2024-03-07T06:43:15;434.03;;;62.63;;
9974;SDS011;5028;50.974;4.968;2024-03-07T06:45:43;420.70;;;67.03;;
9974;SDS011;5028;50.974;4.968;2024-03-07T06:48:12;312.30;;;57.40;;
9974;SDS011;5028;50.974;4.968;2024-03-07T06:50:41;383.83;;;58.53;;
9974;SDS011;5028;50.974;4.968;2024-03-07T06:53:11;372.77;;;63.43;;
9974;SDS011;5028;50.974;4.968;2024-03-07T06:55:40;278.90;;;57.00;;
9974;SDS011;5028;50.974;4.968;2024-03-07T06:58:09;227.67;;;55.20;;
9974;SDS011;5028;50.974;4.968;2024-03-07T07:00:37;286.07;;;58.87;;
9974;SDS011;5028;50.974;4.968;2024-03-07T07:03:07;192.57;;;53.97;;
9974;SDS011;5028;50.974;4.968;2024-03-07T07:05:36;173.70;;;52.57;;
9974;SDS011;5028;50.974;4.968;2024-03-07T07:08:05;186.13;;;52.27;;
9974;SDS011;5028;50.974;4.968;2024-03-07T07:10:34;198.00;;;54.40;;
9974;SDS011;5028;50.974;4.968;2024-03-07T07:13:04;166.63;;;51.13;;
9974;SDS011;5028;50.974;4.968;2024-03-07T07:15:32;180.20;;;53.07;;
9974;SDS011;5028;50.974;4.968;2024-03-07T07:18:03;145.53;;;50.70;;
9974;SDS011;5028;50.974;4.968;2024-03-07T07:20:34;142.20;;;49.70;;
9974;SDS011;5028;50.974;4.968;2024-03-07T07:23:02;166.47;;;52.30;;
9974;SDS011;5028;50.974;4.968;2024-03-07T07:25:31;126.83;;;48.93;;
9974;SDS011;5028;50.974;4.968;2024-03-07T07:28:00;109.97;;;48.00;;
9974;SDS011;5028;50.974;4.968;2024-03-07T07:30:29;155.17;;;48.90;;
9974;SDS011;5028;50.974;4.968;2024-03-07T07:32:57;126.77;;;47.93;;
9974;SDS011;5028;50.974;4.968;2024-03-07T07:35:26;142.60;;;49.37;;
9974;SDS011;5028;50.974;4.968;2024-03-07T07:37:54;117.07;;;45.97;;
9974;SDS011;5028;50.974;4.968;2024-03-07T07:40:23;113.03;;;47.50;;
9974;SDS011;5028;50.974;4.968;2024-03-07T07:42:54;92.37;;;42.20;;
9974;SDS011;5028;50.974;4.968;2024-03-07T07:45:23;91.77;;;43.07;;
9974;SDS011;5028;50.974;4.968;2024-03-07T07:47:53;109.17;;;45.27;;
9974;SDS011;5028;50.974;4.968;2024-03-07T07:50:22;99.80;;;46.50;;
9974;SDS011;5028;50.974;4.968;2024-03-07T07:52:52;103.17;;;46.07;;
9974;SDS011;5028;50.974;4.968;2024-03-07T07:55:22;112.90;;;46.60;;
9974;SDS011;5028;50.974;4.968;2024-03-07T07:57:52;94.00;;;45.37;;
9974;SDS011;5028;50.974;4.968;2024-03-07T08:00:21;97.83;;;45.70;;
9974;SDS011;5028;50.974;4.968;2024-03-07T08:02:50;89.47;;;44.70;;
9974;SDS011;5028;50.974;4.968;2024-03-07T08:05:22;78.50;;;43.33;;
9974;SDS011;5028;50.974;4.968;2024-03-07T08:07:52;75.90;;;41.70;;
9974;SDS011;5028;50.974;4.968;2024-03-07T08:10:24;68.53;;;42.07;;
9974;SDS011;5028;50.974;4.968;2024-03-07T08:12:55;68.00;;;40.20;;
9974;SDS011;5028;50.974;4.968;2024-03-07T08:15:24;74.80;;;43.27;;
9974;SDS011;5028;50.974;4.968;2024-03-07T08:17:56;69.27;;;40.87;;
9974;SDS011;5028;50.974;4.968;2024-03-07T08:20:26;64.23;;;40.60;;
9974;SDS011;5028;50.974;4.968;2024-03-07T08:22:56;65.47;;;38.07;;
9974;SDS011;5028;50.974;4.968;2024-03-07T08:25:26;62.43;;;39.83;;
9974;SDS011;5028;50.974;4.968;2024-03-07T08:27:56;61.20;;;39.17;;
9974;SDS011;5028;50.974;4.968;2024-03-07T08:30:25;65.60;;;39.57;;
9974;SDS011;5028;50.974;4.968;2024-03-07T08:32:57;57.03;;;37.37;;
9974;SDS011;5028;50.974;4.968;2024-03-07T08:35:29;87.23;;;39.53;;
9974;SDS011;5028;50.974;4.968;2024-03-07T08:37:57;62.10;;;37.73;;
9974;SDS011;5028;50.974;4.968;2024-03-07T08:40:26;51.50;;;36.20;;
9974;SDS011;5028;50.974;4.968;2024-03-07T08:42:59;54.63;;;36.17;;
9974;SDS011;5028;50.974;4.968;2024-03-07T08:45:28;50.87;;;36.53;;
9974;SDS011;5028;50.974;4.968;2024-03-07T08:48:03;52.80;;;33.93;;
9974;SDS011;5028;50.974;4.968;2024-03-07T08:50:32;47.67;;;34.50;;
9974;SDS011;5028;50.974;4.968;2024-03-07T08:53:01;49.40;;;34.33;;
9974;SDS011;5028;50.974;4.968;2024-03-07T08:55:31;45.97;;;34.23;;
9974;SDS011;5028;50.974;4.968;2024-03-07T08:57:59;50.10;;;34.87;;
9974;SDS011;5028;50.974;4.968;2024-03-07T09:00:27;45.13;;;33.10;;
9974;SDS011;5028;50.974;4.968;2024-03-07T09:02:56;45.67;;;32.70;;
9974;SDS011;5028;50.974;4.968;2024-03-07T09:05:30;44.00;;;32.80;;
9974;SDS011;5028;50.974;4.968;2024-03-07T09:08:00;41.37;;;32.13;;
9974;SDS011;5028;50.974;4.968;2024-03-07T09:10:30;40.33;;;31.23;;
9974;SDS011;5028;50.974;4.968;2024-03-07T09:12:58;40.87;;;31.00;;
9974;SDS011;5028;50.974;4.968;2024-03-07T09:15:26;39.23;;;30.80;;
9974;SDS011;5028;50.974;4.968;2024-03-07T09:17:55;41.70;;;30.57;;
9974;SDS011;5028;50.974;4.968;2024-03-07T09:20:25;78.83;;;30.73;;
9974;SDS011;5028;50.974;4.968;2024-03-07T09:22:55;34.87;;;28.03;;
9974;SDS011;5028;50.974;4.968;2024-03-07T09:25:23;37.00;;;28.30;;
9974;SDS011;5028;50.974;4.968;2024-03-07T09:27:52;38.40;;;29.40;;
9974;SDS011;5028;50.974;4.968;2024-03-07T09:30:22;36.97;;;27.63;;
9974;SDS011;5028;50.974;4.968;2024-03-07T09:32:53;34.00;;;27.87;;
9974;SDS011;5028;50.974;4.968;2024-03-07T09:35:23;35.17;;;28.87;;
9974;SDS011;5028;50.974;4.968;2024-03-07T09:37:51;33.03;;;27.00;;
9974;SDS011;5028;50.974;4.968;2024-03-07T09:40:23;30.50;;;25.53;;
9974;SDS011;5028;50.974;4.968;2024-03-07T09:42:53;32.17;;;26.33;;
9974;SDS011;5028;50.974;4.968;2024-03-07T09:45:29;34.33;;;25.80;;
9974;SDS011;5028;50.974;4.968;2024-03-07T09:47:58;35.27;;;26.47;;
9974;SDS011;5028;50.974;4.968;2024-03-07T09:50:29;30.80;;;26.40;;
9974;SDS011;5028;50.974;4.968;2024-03-07T09:52:58;32.33;;;25.87;;
9974;SDS011;5028;50.974;4.968;2024-03-07T09:55:29;31.57;;;25.93;;
9974;SDS011;5028;50.974;4.968;2024-03-07T09:57:58;30.20;;;24.80;;
9974;SDS011;5028;50.974;4.968;2024-03-07T10:00:28;30.97;;;25.87;;
9974;SDS011;5028;50.974;4.968;2024-03-07T10:02:58;30.30;;;26.10;;
9974;SDS011;5028;50.974;4.968;2024-03-07T10:05:29;33.33;;;25.33;;
9974;SDS011;5028;50.974;4.968;2024-03-07T10:07:59;35.63;;;25.63;;
9974;SDS011;5028;50.974;4.968;2024-03-07T10:10:29;35.47;;;25.07;;
9974;SDS011;5028;50.974;4.968;2024-03-07T10:12:58;30.80;;;24.53;;
9974;SDS011;5028;50.974;4.968;2024-03-07T10:15:28;28.43;;;24.97;;
9974;SDS011;5028;50.974;4.968;2024-03-07T10:17:56;30.93;;;25.67;;
9974;SDS011;5028;50.974;4.968;2024-03-07T10:20:27;29.83;;;25.00;;
9974;SDS011;5028;50.974;4.968;2024-03-07T10:22:56;31.43;;;25.20;;
9974;SDS011;5028;50.974;4.968;2024-03-07T10:25:24;30.43;;;25.50;;
9974;SDS011;5028;50.974;4.968;2024-03-07T10:27:57;29.93;;;24.10;;
9974;SDS011;5028;50.974;4.968;2024-03-07T10:30:27;28.70;;;24.23;;
9974;SDS011;5028;50.974;4.968;2024-03-07T10:32:56;30.50;;;24.33;;
9974;SDS011;5028;50.974;4.968;2024-03-07T10:35:28;26.40;;;23.33;;
9974;SDS011;5028;50.974;4.968;2024-03-07T10:37:58;27.67;;;24.33;;
9974;SDS011;5028;50.974;4.968;2024-03-07T10:40:28;30.20;;;24.63;;
9974;SDS011;5028;50.974;4.968;2024-03-07T10:42:58;28.97;;;25.83;;
9974;SDS011;5028;50.974;4.968;2024-03-07T10:45:30;29.87;;;24.53;;
9974;SDS011;5028;50.974;4.968;2024-03-07T10:48:01;31.23;;;24.63;;
9974;SDS011;5028;50.974;4.968;2024-03-07T10:50:38;29.70;;;23.97;;
9974;SDS011;5028;50.974;4.968;2024-03-07T10:53:14;28.67;;;24.53;;
9974;SDS011;5028;50.974;4.968;2024-03-07T10:55:53;30.97;;;24.63;;
9974;SDS011;5028;50.974;4.968;2024-03-07T10:58:37;26.63;;;23.77;;
9974;SDS011;5028;50.974;4.968;2024-03-07T11:01:12;26.73;;;23.93;;
9974;SDS011;5028;50.974;4.968;2024-03-07T11:03:42;28.07;;;24.97;;
9974;SDS011;5028;50.974;4.968;2024-03-07T11:06:11;27.37;;;23.70;;
9974;SDS011;5028;50.974;4.968;2024-03-07T11:08:42;28.70;;;25.67;;
9974;SDS011;5028;50.974;4.968;2024-03-07T11:11:12;28.90;;;24.57;;
9974;SDS011;5028;50.974;4.968;2024-03-07T11:13:42;30.73;;;25.27;;
9974;SDS011;5028;50.974;4.968;2024-03-07T11:16:12;29.57;;;25.40;;
9974;SDS011;5028;50.974;4.968;2024-03-07T11:21:45;27.13;;;23.37;;
9974;SDS011;5028;50.974;4.968;2024-03-07T11:24:22;24.40;;;21.80;;
9974;SDS011;5028;50.974;4.968;2024-03-07T11:26:52;23.97;;;21.53;;
9974;SDS011;5028;50.974;4.968;2024-03-07T11:32:20;24.63;;;22.03;;
9974;SDS011;5028;50.974;4.968;2024-03-07T11:34:50;24.03;;;21.53;;
9974;SDS011;5028;50.974;4.968;2024-03-07T11:37:36;24.73;;;21.93;;
9974;SDS011;5028;50.974;4.968;2024-03-07T11:43:23;26.40;;;20.50;;
9974;SDS011;5028;50.974;4.968;2024-03-07T11:45:56;29.77;;;23.30;;
9974;SDS011;5028;50.974;4.968;2024-03-07T11:48:25;25.60;;;21.73;;
9974;SDS011;5028;50.974;4.968;2024-03-07T11:50:54;26.37;;;21.67;;
9974;SDS011;5028;50.974;4.968;2024-03-07T11:53:22;66.00;;;25.83;;
9974;SDS011;5028;50.974;4.968;2024-03-07T11:55:51;28.37;;;21.57;;
9974;SDS011;5028;50.974;4.968;2024-03-07T11:58:21;32.13;;;21.13;;
9974;SDS011;5028;50.974;4.968;2024-03-07T12:00:49;28.23;;;21.63;;
9974;SDS011;5028;50.974;4.968;2024-03-07T12:03:20;22.93;;;20.43;;
9974;SDS011;5028;50.974;4.968;2024-03-07T12:05:52;22.43;;;20.07;;
9974;SDS011;5028;50.974;4.968;2024-03-07T12:08:22;22.97;;;18.93;;
9974;SDS011;5028;50.974;4.968;2024-03-07T12:10:52;21.60;;;17.97;;
9974;SDS011;5028;50.974;4.968;2024-03-07T12:13:24;20.80;;;18.70;;
9974;SDS011;5028;50.974;4.968;2024-03-07T12:15:54;20.63;;;18.43;;
9974;SDS011;5028;50.974;4.968;2024-03-07T12:18:26;26.20;;;19.27;;
9974;SDS011;5028;50.974;4.968;2024-03-07T12:20:57;24.03;;;18.60;;
9974;SDS011;5028;50.974;4.968;2024-03-07T12:23:26;18.33;;;16.50;;
9974;SDS011;5028;50.974;4.968;2024-03-07T12:26:01;18.67;;;16.87;;
9974;SDS011;5028;50.974;4.968;2024-03-07T12:28:30;17.80;;;15.97;;
9974;SDS011;5028;50.974;4.968;2024-03-07T12:31:01;18.90;;;16.90;;
9974;SDS011;5028;50.974;4.968;2024-03-07T12:33:33;18.33;;;16.43;;
9974;SDS011;5028;50.974;4.968;2024-03-07T12:36:06;19.27;;;17.10;;
9974;SDS011;5028;50.974;4.968;2024-03-07T12:38:37;18.30;;;15.90;;
9974;SDS011;5028;50.974;4.968;2024-03-07T12:41:09;17.13;;;14.53;;
9974;SDS011;5028;50.974;4.968;2024-03-07T12:43:43;15.27;;;13.77;;
9974;SDS011;5028;50.974;4.968;2024-03-07T12:46:13;64.93;;;18.17;;
9974;SDS011;5028;50.974;4.968;2024-03-07T12:48:44;16.10;;;14.40;;
9974;SDS011;5028;50.974;4.968;2024-03-07T12:51:14;16.17;;;14.47;;
9974;SDS011;5028;50.974;4.968;2024-03-07T12:53:46;16.90;;;15.30;;
9974;SDS011;5028;50.974;4.968;2024-03-07T12:56:15;17.00;;;15.40;;
9974;SDS011;5028;50.974;4.968;2024-03-07T12:58:46;20.93;;;17.67;;
9974;SDS011;5028;50.974;4.968;2024-03-07T13:01:16;26.87;;;18.37;;
9974;SDS011;5028;50.974;4.968;2024-03-07T13:03:47;18.60;;;16.83;;
9974;SDS011;5028;50.974;4.968;2024-03-07T13:06:16;19.50;;;17.63;;
9974;SDS011;5028;50.974;4.968;2024-03-07T13:08:52;19.00;;;17.07;;
9974;SDS011;5028;50.974;4.968;2024-03-07T13:11:23;23.27;;;17.80;;
9974;SDS011;5028;50.974;4.968;2024-03-07T13:13:54;19.20;;;17.17;;
9974;SDS011;5028;50.974;4.968;2024-03-07T13:16:23;18.83;;;16.93;;
9974;SDS011;5028;50.974;4.968;2024-03-07T13:18:58;18.83;;;16.83;;
9974;SDS011;5028;50.974;4.968;2024-03-07T13:21:26;44.53;;;17.93;;
9974;SDS011;5028;50.974;4.968;2024-03-07T13:23:56;18.87;;;16.87;;
9974;SDS011;5028;50.974;4.968;2024-03-07T13:26:26;350.47;;;56.57;;
9974;SDS011;5028;50.974;4.968;2024-03-07T13:28:58;30.97;;;17.57;;
9974;SDS011;5028;50.974;4.968;2024-03-07T13:31:28;18.73;;;15.87;;
9974;SDS011;5028;50.974;4.968;2024-03-07T13:33:58;17.60;;;15.80;;
9974;SDS011;5028;50.974;4.968;2024-03-07T13:36:29;28.13;;;15.67;;
9974;SDS011;5028;50.974;4.968;2024-03-07T13:38:57;18.03;;;16.10;;
9974;SDS011;5028;50.974;4.968;2024-03-07T13:41:26;18.73;;;16.37;;
9974;SDS011;5028;50.974;4.968;2024-03-07T13:43:55;17.80;;;15.93;;
9974;SDS011;5028;50.974;4.968;2024-03-07T13:46:26;18.33;;;16.43;;
9974;SDS011;5028;50.974;4.968;2024-03-07T13:48:55;22.10;;;15.57;;
9974;SDS011;5028;50.974;4.968;2024-03-07T13:51:35;18.27;;;16.33;;
9974;SDS011;5028;50.974;4.968;2024-03-07T13:54:03;17.20;;;15.40;;
9974;SDS011;5028;50.974;4.968;2024-03-07T13:56:54;16.80;;;15.00;;
9974;SDS011;5028;50.974;4.968;2024-03-07T13:59:49;17.03;;;15.23;;
9974;SDS011;5028;50.974;4.968;2024-03-07T14:05:42;16.60;;;13.67;;
9974;SDS011;5028;50.974;4.968;2024-03-07T14:14:41;15.60;;;13.60;;
9974;SDS011;5028;50.974;4.968;2024-03-07T14:17:39;16.73;;;13.50;;
9974;SDS011;5028;50.974;4.968;2024-03-07T14:23:41;16.93;;;13.70;;
9974;SDS011;5028;50.974;4.968;2024-03-07T14:26:49;16.90;;;13.93;;
9974;SDS011;5028;50.974;4.968;2024-03-07T14:29:35;22.67;;;14.80;;
9974;SDS011;5028;50.974;4.968;2024-03-07T14:32:10;16.13;;;14.00;;
9974;SDS011;5028;50.974;4.968;2024-03-07T14:34:45;15.30;;;13.33;;
9974;SDS011;5028;50.974;4.968;2024-03-07T14:37:23;17.17;;;13.70;;
9974;SDS011;5028;50.974;4.968;2024-03-07T14:39:53;19.50;;;13.83;;
9974;SDS011;5028;50.974;4.968;2024-03-07T14:42:39;14.73;;;13.23;;
9974;SDS011;5028;50.974;4.968;2024-03-07T14:45:12;15.70;;;14.10;;
9974;SDS011;5028;50.974;4.968;2024-03-07T14:47:43;28.33;;;14.20;;
9974;SDS011;5028;50.974;4.968;2024-03-07T14:50:14;15.23;;;13.50;;
9974;SDS011;5028;50.974;4.968;2024-03-07T14:52:46;15.17;;;13.20;;
9974;SDS011;5028;50.974;4.968;2024-03-07T14:55:15;16.53;;;13.00;;
9974;SDS011;5028;50.974;4.968;2024-03-07T14:57:47;14.90;;;12.73;;
9974;SDS011;5028;50.974;4.968;2024-03-07T15:00:16;21.73;;;13.53;;
9974;SDS011;5028;50.974;4.968;2024-03-07T15:02:59;15.90;;;13.07;;
9974;SDS011;5028;50.974;4.968;2024-03-07T15:05:28;34.87;;;14.57;;
9974;SDS011;5028;50.974;4.968;2024-03-07T15:07:57;24.03;;;13.27;;
9974;SDS011;5028;50.974;4.968;2024-03-07T15:10:27;13.50;;;11.70;;
9974;SDS011;5028;50.974;4.968;2024-03-07T15:13:00;14.23;;;11.57;;
9974;SDS011;5028;50.974;4.968;2024-03-07T15:15:29;20.07;;;12.10;;
9974;SDS011;5028;50.974;4.968;2024-03-07T15:17:58;13.90;;;11.57;;
9974;SDS011;5028;50.974;4.968;2024-03-07T15:20:27;12.47;;;11.17;;
9974;SDS011;5028;50.974;4.968;2024-03-07T15:22:58;15.63;;;11.70;;
9974;SDS011;5028;50.974;4.968;2024-03-07T15:25:27;14.10;;;11.70;;